Time;durP1;ratioP1;P1;durP2;ratioP2;P2;SDS_P1;SDS_P2;PMS_P1;PMS_P2;Temp;Humidity;BMP_temperature;BMP_pressure;BME280_temperature;BME280_humidity;BME280_pressure;Samples;Min_cycle;Max_cycle;Signal;HPM_P1;HPM_P2
2023/10/05 00:01:04;;;;;;;11.90;4.72;;;;;;;17.47;61.72;101797.28;5049123;27;96877;-80
2023/10/05 00:03:31;;;;;;;13.73;4.72;;;;;;;17.57;61.36;101794.19;5046371;27;97776;-79
2023/10/05 00:06:10;;;;;;;11.85;4.90;;;;;;;17.48;61.99;101801.69;5052009;27;99332;-80
2023/10/05 00:08:37;;;;;;;14.82;4.55;;;;;;;17.15;63.45;101797.94;5048778;27;98809;-80
2023/10/05 00:11:06;;;;;;;13.48;5.10;;;;;;;17.45;62.14;101796.53;5049169;27;97091;-80
2023/10/05 00:13:34;;;;;;;11.40;5.20;;;;;;;17.34;62.35;101787.25;5044950;27;99519;-80
2023/10/05 00:16:04;;;;;;;11.27;5.13;;;;;;;17.33;62.65;101786.38;5054387;27;101667;-79
2023/10/05 00:18:31;;;;;;;11.50;5.03;;;;;;;17.19;63.10;101796.00;5047260;27;97605;-80
2023/10/05 00:21:00;;;;;;;14.23;5.75;;;;;;;17.30;62.81;101791.03;5049067;27;97529;-81
2023/10/05 00:23:27;;;;;;;14.52;4.82;;;;;;;17.05;63.42;101786.84;5048274;27;99364;-82
2023/10/05 00:25:55;;;;;;;11.32;4.63;;;;;;;17.08;63.69;101801.81;5043307;27;101304;-80
2023/10/05 00:28:24;;;;;;;8.77;4.53;;;;;;;17.21;63.24;101807.47;5048305;27;96783;-80
2023/10/05 00:30:54;;;;;;;13.18;4.55;;;;;;;17.12;63.51;101804.31;5045951;27;96783;-81
2023/10/05 00:33:20;;;;;;;9.10;5.05;;;;;;;17.00;63.72;101791.50;5050269;27;99385;-80
2023/10/05 00:35:47;;;;;;;10.85;5.38;;;;;;;16.93;64.29;101797.19;5046655;27;99162;-80
2023/10/05 00:38:16;;;;;;;12.80;4.32;;;;;;;17.07;63.70;101787.59;5049945;27;97576;-79
2023/10/05 00:40:51;;;;;;;13.00;4.85;;;;;;;16.93;64.13;101792.72;5050957;27;97725;-81
2023/10/05 00:43:23;;;;;;;11.40;4.75;;;;;;;17.12;63.48;101788.28;5049541;27;101307;-80
2023/10/05 00:45:50;;;;;;;11.43;4.78;;;;;;;17.29;62.93;101783.94;5049951;27;97972;-80
2023/10/05 00:48:27;;;;;;;11.98;4.50;;;;;;;17.17;63.01;101788.06;5045071;27;96975;-80
2023/10/05 00:50:56;;;;;;;10.80;4.97;;;;;;;17.16;63.14;101788.13;5047563;27;98875;-80
2023/10/05 00:53:24;;;;;;;18.27;5.18;;;;;;;17.19;63.02;101785.31;5047479;27;99731;-80
2023/10/05 00:55:59;;;;;;;11.05;4.60;;;;;;;17.20;62.99;101777.22;5051019;27;101411;-81
2023/10/05 00:58:34;;;;;;;12.70;5.05;;;;;;;17.35;62.85;101780.97;5045037;27;96963;-80
2023/10/05 01:01:05;;;;;;;9.00;4.63;;;;;;;17.23;62.93;101773.53;5050375;27;97456;-80
2023/10/05 01:03:45;;;;;;;14.90;4.30;;;;;;;17.22;63.03;101777.16;5050028;27;99302;-80
2023/10/05 01:06:12;;;;;;;11.55;4.22;;;;;;;17.43;62.44;101781.50;5048426;27;99726;-80
2023/10/05 01:08:49;;;;;;;13.60;4.80;;;;;;;17.37;62.52;101771.09;5050805;27;99263;-80
2023/10/05 01:11:19;;;;;;;14.63;4.78;;;;;;;17.25;62.75;101763.66;5050299;27;96988;-79
2023/10/05 01:13:48;;;;;;;9.00;4.10;;;;;;;17.36;62.34;101759.53;5045863;27;98992;-79
2023/10/05 01:16:19;;;;;;;9.18;3.90;;;;;;;17.33;62.55;101754.31;5049720;27;98870;-81
2023/10/05 01:18:46;;;;;;;11.75;4.63;;;;;;;17.44;62.07;101744.03;5042471;27;98659;-79
2023/10/05 01:21:13;;;;;;;10.45;4.80;;;;;;;17.40;62.13;101747.75;5046725;27;97535;-79
2023/10/05 01:23:42;;;;;;;10.52;4.85;;;;;;;17.22;62.65;101743.31;5043029;27;101738;-80
2023/10/05 01:26:10;;;;;;;13.13;5.10;;;;;;;17.30;62.65;101737.59;5046374;27;98911;-79
2023/10/05 01:28:38;;;;;;;10.52;4.95;;;;;;;17.34;62.51;101725.81;5046223;27;96964;-79
2023/10/05 02:38:23;;;;;;;16.73;4.28;;;;;;;17.05;63.39;101680.03;5049632;27;97150;-80
2023/10/05 02:40:58;;;;;;;11.95;3.70;;;;;;;16.92;63.79;101670.00;5049632;27;99657;-80
2023/10/05 02:43:27;;;;;;;9.25;3.65;;;;;;;17.12;63.17;101661.91;5050085;27;98763;-80
2023/10/05 02:45:59;;;;;;;12.63;4.00;;;;;;;16.97;63.62;101671.50;5055136;27;96765;-80
2023/10/05 02:48:25;;;;;;;13.50;3.58;;;;;;;16.90;63.61;101667.38;5051598;27;96758;-80
2023/10/05 02:50:52;;;;;;;12.45;3.28;;;;;;;17.02;63.62;101668.59;5049312;27;99339;-81
2023/10/05 02:53:22;;;;;;;10.13;3.70;;;;;;;17.24;62.88;101663.09;5052603;27;101855;-81
2023/10/05 02:55:53;;;;;;;9.38;3.42;;;;;;;17.33;62.21;101662.63;5050435;27;96805;-80
2023/10/05 02:58:22;;;;;;;11.85;4.15;;;;;;;16.90;63.48;101656.72;5049542;27;96842;-80
2023/10/05 03:00:48;;;;;;;14.35;4.05;;;;;;;17.09;63.25;101654.88;5049245;27;99333;-81
2023/10/05 03:03:15;;;;;;;17.23;3.75;;;;;;;17.07;63.27;101655.88;5050701;27;99059;-81
2023/10/05 03:05:41;;;;;;;15.93;3.15;;;;;;;17.02;63.36;101653.44;5053908;27;96955;-80
2023/10/05 03:08:09;;;;;;;8.05;3.83;;;;;;;17.03;63.53;101657.84;5054242;27;96914;-81
2023/10/05 03:10:36;;;;;;;11.35;4.15;;;;;;;17.02;63.46;101653.44;5050721;27;101963;-80
2023/10/05 03:13:05;;;;;;;8.63;3.38;;;;;;;16.97;63.60;101654.63;5054407;27;98924;-81
2023/10/05 03:15:34;;;;;;;12.85;3.20;;;;;;;16.96;63.96;101652.88;5050716;27;97540;-81
2023/10/05 03:18:01;;;;;;;9.18;3.58;;;;;;;17.13;63.24;101650.28;5049622;27;97003;-81
2023/10/05 03:20:29;;;;;;;8.88;3.45;;;;;;;17.35;62.29;101650.06;5048974;27;99747;-82
2023/10/05 03:22:56;;;;;;;13.77;3.53;;;;;;;17.39;61.81;101643.66;5053868;27;98983;-81
2023/10/05 03:25:25;;;;;;;13.52;3.38;;;;;;;17.36;61.88;101642.00;5054579;27;96691;-80
2023/10/05 03:27:52;;;;;;;10.93;3.50;;;;;;;17.52;61.18;101652.81;5058606;27;96839;-80
2023/10/05 03:30:26;;;;;;;11.88;3.72;;;;;;;17.16;62.48;101638.56;5047418;27;101493;-82
2023/10/05 03:32:53;;;;;;;8.70;3.08;;;;;;;16.96;62.72;101643.06;5054262;27;99318;-79
2023/10/05 03:35:22;;;;;;;11.88;3.45;;;;;;;17.03;62.87;101635.63;5051133;27;96781;-79
2023/10/05 03:37:49;;;;;;;10.50;3.25;;;;;;;16.91;63.20;101644.22;5049007;27;96886;-79
2023/10/05 03:40:22;;;;;;;13.50;3.60;;;;;;;17.09;62.67;101638.00;5049555;27;98917;-78
2023/10/05 03:42:56;;;;;;;8.25;3.28;;;;;;;17.23;61.93;101638.19;5048222;27;98926;-79
2023/10/05 03:45:24;;;;;;;10.65;3.58;;;;;;;17.37;61.55;101646.41;5051780;27;96745;-78
2023/10/05 03:47:52;;;;;;;14.02;3.47;;;;;;;17.38;61.39;101645.47;5047670;27;97055;-78
2023/10/05 03:50:20;;;;;;;10.05;3.72;;;;;;;17.30;61.84;101636.09;5050737;27;98142;-79
2023/10/05 03:52:47;;;;;;;12.38;3.88;;;;;;;17.24;61.82;101636.41;5053039;27;99809;-79
2023/10/05 03:55:18;;;;;;;12.55;4.13;;;;;;;17.45;60.85;101630.88;5053728;27;96748;-80
2023/10/05 03:57:45;;;;;;;11.75;3.67;;;;;;;17.41;60.91;101633.75;5051632;27;96749;-79
2023/10/05 04:00:31;;;;;;;16.38;3.88;;;;;;;17.30;60.89;101625.41;5051335;27;99818;-77
2023/10/05 04:02:59;;;;;;;8.63;3.42;;;;;;;17.29;61.07;101623.66;5048430;27;100943;-80
2023/10/05 04:05:25;;;;;;;11.27;3.72;;;;;;;17.31;61.11;101625.34;5051735;27;96813;-79
2023/10/05 04:07:52;;;;;;;12.23;4.35;;;;;;;17.07;61.66;101616.72;5052027;27;98418;-79
2023/10/05 04:10:23;;;;;;;9.70;4.10;;;;;;;17.26;61.15;101618.50;5047778;27;98901;-78
2023/10/05 04:12:51;;;;;;;10.70;3.47;;;;;;;17.05;61.46;101615.94;5050189;27;99083;-80
2023/10/05 04:15:20;;;;;;;10.65;4.18;;;;;;;17.22;61.25;101619.56;5045198;27;96781;-81
2023/10/05 04:17:49;;;;;;;14.38;4.80;;;;;;;17.11;61.20;101618.31;5045840;27;96899;-77
2023/10/05 04:20:19;;;;;;;11.13;4.32;;;;;;;17.30;60.88;101607.56;5050189;27;99449;-80
2023/10/05 04:22:49;;;;;;;17.30;4.93;;;;;;;17.26;61.15;101611.34;5051866;27;99211;-79
2023/10/05 04:25:16;;;;;;;13.10;4.10;;;;;;;17.10;60.95;101608.56;5046298;27;97190;-79
2023/10/05 04:27:44;;;;;;;14.35;4.43;;;;;;;17.05;61.52;101610.59;5049836;27;97416;-79
2023/10/05 04:30:14;;;;;;;11.27;3.95;;;;;;;16.93;62.00;101613.00;5049945;27;98958;-82
2023/10/05 04:32:41;;;;;;;8.90;3.83;;;;;;;17.02;61.66;101592.03;5044931;27;100065;-80
2023/10/05 04:35:23;;;;;;;8.95;3.63;;;;;;;17.13;61.58;101596.88;5051394;27;98771;-80
2023/10/05 04:37:51;;;;;;;9.13;4.07;;;;;;;17.20;61.42;101600.94;5046255;27;96859;-79
2023/10/05 04:40:20;;;;;;;18.90;4.50;;;;;;;17.03;61.69;101601.78;5051356;27;101807;-79
2023/10/05 04:42:46;;;;;;;11.80;3.70;;;;;;;17.05;61.82;101602.59;5051304;27;98811;-77
2023/10/05 04:45:14;;;;;;;15.82;4.47;;;;;;;17.13;61.49;101602.22;5050945;27;96808;-79
2023/10/05 04:47:41;;;;;;;15.93;4.30;;;;;;;17.23;61.19;101590.13;5050499;27;96932;-78
2023/10/05 04:50:13;;;;;;;15.25;3.80;;;;;;;17.09;61.52;101585.47;5049864;27;98981;-80
2023/10/05 04:52:39;;;;;;;11.10;3.65;;;;;;;17.17;61.73;101586.91;5051027;27;97921;-82
2023/10/05 04:55:18;;;;;;;10.43;3.75;;;;;;;16.92;62.59;101574.75;5037466;27;96743;-79
2023/10/05 04:57:52;;;;;;;10.35;3.50;;;;;;;17.05;62.07;101573.22;5049984;27;96812;-80
2023/10/05 05:03:17;;;;;;;12.68;3.78;;;;;;;17.13;62.01;101575.50;5050382;27;97148;-80
2023/10/05 05:05:53;;;;;;;12.13;4.20;;;;;;;17.10;62.24;101571.19;5043657;27;96953;-78
2023/10/05 05:08:20;;;;;;;14.70;3.83;;;;;;;17.21;61.71;101575.09;5048174;27;96835;-77
2023/10/05 05:10:48;;;;;;;14.90;3.58;;;;;;;16.89;62.92;101560.69;5049129;27;99309;-77
2023/10/05 05:13:14;;;;;;;11.88;4.15;;;;;;;17.11;62.25;101567.56;5047445;27;99144;-77
2023/10/05 05:15:42;;;;;;;9.73;3.72;;;;;;;17.14;62.18;101566.53;5049086;27;97261;-76
2023/10/05 05:18:14;;;;;;;10.70;4.18;;;;;;;17.06;62.55;101585.63;5050467;27;97172;-78
2023/10/05 05:20:41;;;;;;;12.38;4.35;;;;;;;16.78;63.67;101558.53;5048255;27;100146;-78
2023/10/05 05:23:10;;;;;;;12.10;4.18;;;;;;;16.88;63.37;101564.28;5049505;27;98954;-79
2023/10/05 05:25:37;;;;;;;12.73;4.95;;;;;;;17.06;62.83;101558.06;5049132;27;97277;-78
2023/10/05 05:28:06;;;;;;;16.40;4.20;;;;;;;17.19;62.32;101563.66;5049707;27;96973;-75
2023/10/05 05:30:32;;;;;;;12.85;3.63;;;;;;;17.08;62.64;101558.81;5043750;27;99040;-77
2023/10/05 05:32:59;;;;;;;13.20;3.90;;;;;;;17.21;62.38;101554.59;5039572;27;98856;-79
2023/10/05 05:35:28;;;;;;;14.55;4.10;;;;;;;17.31;62.24;101561.22;5044713;27;97114;-81
2023/10/05 05:37:56;;;;;;;15.25;3.95;;;;;;;17.02;63.19;101565.34;5050375;27;96836;-80
2023/10/05 05:40:23;;;;;;;16.77;4.35;;;;;;;17.14;62.53;101559.38;5044988;27;101945;-79
2023/10/05 05:42:54;;;;;;;13.80;4.25;;;;;;;17.13;62.77;101565.66;5048888;27;100486;-80
2023/10/05 05:45:22;;;;;;;13.75;4.22;;;;;;;17.24;62.65;101558.94;5047361;27;97002;-79
2023/10/05 05:47:48;;;;;;;12.30;3.85;;;;;;;17.10;63.31;101564.97;5048834;27;97297;-79
2023/10/05 05:50:17;;;;;;;20.13;5.05;;;;;;;17.44;62.07;101566.81;5043787;27;102050;-81
2023/10/05 05:52:46;;;;;;;10.63;4.28;;;;;;;17.27;62.67;101561.44;5052584;27;100939;-80
2023/10/05 05:55:13;;;;;;;11.38;4.13;;;;;;;17.43;62.12;101562.41;5044965;27;96851;-79
2023/10/05 05:57:40;;;;;;;16.88;4.53;;;;;;;17.18;62.76;101567.25;5051367;27;97034;-79
2023/10/05 06:00:12;;;;;;;13.55;4.13;;;;;;;17.20;63.14;101573.41;5050403;27;99660;-81
2023/10/05 06:02:40;;;;;;;15.73;4.85;;;;;;;17.02;63.89;101562.66;5045963;27;99457;-76
2023/10/05 06:05:09;;;;;;;14.88;4.85;;;;;;;17.21;63.26;101553.75;5045488;27;97249;-78
2023/10/05 06:07:38;;;;;;;17.35;4.63;;;;;;;17.10;63.75;101563.16;5048563;27;97299;-78
2023/10/05 06:10:11;;;;;;;9.43;3.70;;;;;;;17.35;62.93;101561.91;5037423;27;98012;-79
2023/10/05 06:12:38;;;;;;;12.93;3.92;;;;;;;17.14;63.86;101562.06;5045091;27;98163;-78
2023/10/05 06:15:05;;;;;;;15.18;4.93;;;;;;;17.32;63.56;101565.63;5043585;27;97361;-78
2023/10/05 06:17:32;;;;;;;9.93;4.25;;;;;;;17.22;64.26;101566.16;5044556;27;97227;-78
2023/10/05 06:20:00;;;;;;;15.85;5.05;;;;;;;17.66;62.36;101558.56;5044746;27;98993;-78
2023/10/05 06:22:26;;;;;;;11.75;4.60;;;;;;;17.67;62.46;101560.28;5043917;27;100575;-78
2023/10/05 06:24:53;;;;;;;16.27;5.15;;;;;;;17.56;62.60;101568.84;5041237;27;96889;-77
2023/10/05 06:27:19;;;;;;;13.27;4.30;;;;;;;17.60;62.98;101562.38;5047552;27;98475;-79
2023/10/05 06:29:49;;;;;;;16.33;5.40;;;;;;;17.75;62.46;101566.13;5041366;27;100508;-78
2023/10/05 06:32:15;;;;;;;15.27;5.10;;;;;;;17.80;62.04;101558.72;5039734;27;100015;-78
2023/10/05 06:34:42;;;;;;;20.90;4.18;;;;;;;17.58;63.03;101571.44;5045730;27;96962;-78
2023/10/05 06:37:11;;;;;;;13.10;4.05;;;;;;;17.30;64.15;101569.31;5046010;27;96895;-78
2023/10/05 06:39:38;;;;;;;16.40;4.45;;;;;;;17.60;63.35;101559.72;5042114;27;97600;-80
2023/10/05 06:42:06;;;;;;;12.38;4.30;;;;;;;17.60;63.26;101570.41;5046542;27;97438;-79
2023/10/05 06:44:34;;;;;;;12.95;4.30;;;;;;;18.04;61.82;101556.56;5044308;27;98939;-78
2023/10/05 06:47:00;;;;;;;14.23;3.97;;;;;;;18.20;61.20;101554.78;5044502;27;100441;-78
2023/10/05 06:49:27;;;;;;;13.18;4.30;;;;;;;18.16;61.24;101547.88;5043743;27;99159;-77
2023/10/05 06:51:54;;;;;;;14.25;4.20;;;;;;;18.17;61.29;101553.16;5042925;27;99044;-77
2023/10/05 06:54:22;;;;;;;11.80;3.85;;;;;;;17.91;62.06;101556.34;5047705;27;97073;-78
2023/10/05 06:56:49;;;;;;;16.13;4.78;;;;;;;18.16;60.95;101569.28;5044866;27;97040;-79
2023/10/05 06:59:16;;;;;;;14.75;4.80;;;;;;;17.91;62.09;101554.56;5042488;27;98923;-80
2023/10/05 07:01:42;;;;;;;15.60;4.25;;;;;;;18.03;61.85;101554.84;5041550;27;98068;-78
2023/10/05 07:04:09;;;;;;;16.90;4.78;;;;;;;17.91;62.20;101551.88;5044456;27;96768;-79
2023/10/05 07:06:35;;;;;;;9.95;3.80;;;;;;;17.91;62.40;101554.56;5036855;27;98495;-79
2023/10/05 07:09:02;;;;;;;17.70;4.07;;;;;;;18.14;61.41;101549.75;5040508;27;98829;-77
2023/10/05 07:11:30;;;;;;;10.20;3.90;;;;;;;18.19;61.46;101558.38;5046524;27;99369;-78
2023/10/05 07:13:57;;;;;;;12.25;3.92;;;;;;;18.40;60.73;101561.72;5041820;27;97123;-78
2023/10/05 07:16:24;;;;;;;9.43;4.30;;;;;;;18.29;61.17;101567.66;5044822;27;96852;-78
2023/10/05 07:18:50;;;;;;;12.25;4.32;;;;;;;18.35;60.85;101574.47;5053629;27;98864;-79
2023/10/05 07:21:17;;;;;;;16.77;4.45;;;;;;;18.29;61.28;101573.00;5050310;27;98847;-78
2023/10/05 07:23:44;;;;;;;15.70;3.85;;;;;;;18.39;60.90;101571.53;5049378;27;97315;-78
2023/10/05 07:26:10;;;;;;;12.35;3.85;;;;;;;18.38;60.58;101577.84;5051818;27;97473;-78
2023/10/05 07:28:40;;;;;;;12.48;4.30;;;;;;;18.12;61.52;101575.72;5049634;27;98711;-78
2023/10/05 07:31:06;;;;;;;15.60;4.70;;;;;;;18.54;60.29;101585.91;5043958;27;100270;-78
2023/10/05 07:33:35;;;;;;;9.68;3.90;;;;;;;18.16;61.52;101591.53;5041576;27;96880;-78
2023/10/05 07:36:02;;;;;;;14.35;4.40;;;;;;;17.93;62.57;101594.56;5041511;27;99250;-77
2023/10/05 07:38:29;;;;;;;12.15;4.10;;;;;;;18.45;61.01;101606.00;5042281;27;98147;-78
2023/10/05 07:40:56;;;;;;;13.35;4.40;;;;;;;18.43;61.09;101593.66;5036924;27;99017;-78
2023/10/05 07:43:23;;;;;;;10.77;4.05;;;;;;;18.75;59.72;101614.19;5051051;27;96989;-78
2023/10/05 07:45:51;;;;;;;13.68;3.38;;;;;;;18.76;59.76;101607.03;5046090;27;97790;-78
2023/10/05 07:48:17;;;;;;;19.92;3.70;;;;;;;18.83;59.31;101613.78;5051538;27;97745;-78
2023/10/05 07:50:44;;;;;;;11.85;3.60;;;;;;;18.94;58.92;101616.69;5044631;27;98791;-78
2023/10/05 07:53:10;;;;;;;17.73;4.32;;;;;;;18.65;59.60;101619.19;5050253;27;97594;-79
2023/10/05 07:55:37;;;;;;;17.73;4.30;;;;;;;19.02;58.58;101619.81;5049133;27;96904;-78
2023/10/05 07:58:05;;;;;;;12.68;3.67;;;;;;;19.17;58.27;101624.28;5045760;27;98962;-78
2023/10/05 08:00:32;;;;;;;18.25;4.00;;;;;;;18.96;58.69;101613.00;5042550;27;98976;-77
2023/10/05 08:03:00;;;;;;;14.85;3.88;;;;;;;19.09;58.30;101622.06;5038438;27;99081;-78
2023/10/05 08:05:27;;;;;;;13.20;3.42;;;;;;;19.24;58.03;101633.69;5046859;27;96855;-78
2023/10/05 08:07:54;;;;;;;11.82;4.18;;;;;;;19.40;57.12;101631.88;5047327;27;99084;-78
2023/10/05 08:10:23;;;;;;;11.27;3.70;;;;;;;19.35;57.54;101636.63;5044938;27;98648;-78
2023/10/05 08:12:49;;;;;;;10.60;2.97;;;;;;;19.53;56.67;101631.19;5043520;27;97450;-80
2023/10/05 08:15:18;;;;;;;12.75;3.83;;;;;;;19.54;56.96;101628.41;5047745;27;98578;-79
2023/10/05 08:17:45;;;;;;;14.43;4.28;;;;;;;19.57;56.92;101632.72;5040326;27;98992;-78
2023/10/05 08:20:15;;;;;;;11.63;3.50;;;;;;;19.23;57.99;101628.44;5039121;27;99640;-77
2023/10/05 08:22:42;;;;;;;11.32;4.25;;;;;;;18.97;58.61;101629.94;5041724;27;98403;-75
2023/10/05 08:25:11;;;;;;;10.93;3.70;;;;;;;19.15;58.33;101636.91;5044864;27;97007;-76
2023/10/05 08:27:38;;;;;;;12.93;3.42;;;;;;;19.41;57.12;101630.91;5042407;27;99878;-76
2023/10/05 08:30:06;;;;;;;9.45;3.38;;;;;;;19.75;56.28;101637.00;5039019;27;98930;-75
2023/10/05 08:32:33;;;;;;;14.52;3.83;;;;;;;19.91;55.25;101629.75;5035996;27;97854;-75
2023/10/05 08:35:06;;;;;;;11.35;3.60;;;;;;;19.53;56.58;101631.19;5044000;27;99460;-75
2023/10/05 08:37:37;;;;;;;14.07;3.90;;;;;;;19.83;55.61;101630.22;5040723;27;98945;-76
2023/10/05 08:40:27;;;;;;;12.52;3.60;;;;;;;19.44;56.79;101640.56;5038559;27;100442;-77
2023/10/05 08:42:54;;;;;;;8.65;2.90;;;;;;;19.36;57.30;101634.81;5048454;27;97595;-78
2023/10/05 08:45:23;;;;;;;10.95;3.40;;;;;;;19.81;56.33;101637.50;5045838;27;96821;-78
2023/10/05 08:47:53;;;;;;;14.00;3.33;;;;;;;19.91;55.85;101637.78;5049280;27;102135;-78
2023/10/05 08:50:22;;;;;;;13.77;3.22;;;;;;;20.02;55.71;101629.94;5047974;27;100395;-78
2023/10/05 08:52:50;;;;;;;10.35;2.92;;;;;;;20.29;54.31;101632.75;5050093;27;97104;-78
2023/10/05 08:55:17;;;;;;;12.18;3.45;;;;;;;19.88;55.24;101627.28;5049681;27;97132;-77
2023/10/05 08:57:43;;;;;;;12.05;3.67;;;;;;;20.41;54.04;101631.19;5046163;27;98953;-78
2023/10/05 09:00:14;;;;;;;8.90;3.00;;;;;;;20.84;52.86;101624.81;5047826;27;99051;-78
2023/10/05 09:02:41;;;;;;;9.50;3.35;;;;;;;20.81;52.63;101629.50;5045639;27;96897;-79
2023/10/05 09:05:08;;;;;;;11.82;3.58;;;;;;;20.85;52.24;101623.84;5043263;27;97636;-79
2023/10/05 09:07:35;;;;;;;12.52;3.88;;;;;;;20.94;51.89;101625.06;5046443;27;99446;-78
2023/10/05 09:10:05;;;;;;;13.27;3.40;;;;;;;20.49;52.83;101628.88;5044053;27;98738;-79
2023/10/05 09:12:35;;;;;;;11.45;3.53;;;;;;;20.76;52.34;101627.13;5048857;27;97335;-77
2023/10/05 09:15:10;;;;;;;13.65;4.32;;;;;;;20.36;53.63;101631.47;5039844;27;97043;-77
2023/10/05 09:17:37;;;;;;;12.13;3.10;;;;;;;20.19;53.94;101629.81;5046614;27;99460;-78
2023/10/05 09:20:21;;;;;;;11.55;3.60;;;;;;;20.19;54.46;101635.16;5048471;27;99425;-77
2023/10/05 09:22:51;;;;;;;14.57;3.90;;;;;;;20.12;55.17;101636.50;5040125;27;98679;-77
2023/10/05 09:25:26;;;;;;;16.83;3.90;;;;;;;19.92;55.44;101636.84;5046299;27;97268;-78
2023/10/05 09:27:55;;;;;;;14.90;3.63;;;;;;;20.19;54.85;101632.47;5043837;27;99005;-78
2023/10/05 09:30:22;;;;;;;13.18;3.15;;;;;;;20.36;53.95;101627.91;5042249;27;98859;-78
2023/10/05 09:32:49;;;;;;;11.68;3.53;;;;;;;20.62;53.25;101630.69;5043670;27;98138;-78
2023/10/05 09:35:28;;;;;;;21.58;3.88;;;;;;;20.10;55.07;101634.84;5037940;27;97030;-78
2023/10/05 09:37:57;;;;;;;11.23;3.42;;;;;;;20.28;55.12;101634.59;5043110;27;98934;-77
2023/10/05 09:40:26;;;;;;;16.55;3.38;;;;;;;20.44;53.99;101628.31;5044821;27;99253;-77
2023/10/05 09:42:55;;;;;;;29.33;5.57;;;;;;;20.91;52.72;101631.53;5042020;27;96870;-78
2023/10/05 09:45:23;;;;;;;15.05;3.00;;;;;;;20.73;52.98;101643.44;5047508;27;97037;-77
2023/10/05 09:47:53;;;;;;;14.73;3.95;;;;;;;20.83;52.58;101639.19;5044500;27;99580;-78
2023/10/05 09:50:24;;;;;;;11.80;3.20;;;;;;;20.13;54.42;101643.59;5042877;27;98791;-77
2023/10/05 09:52:51;;;;;;;15.98;2.92;;;;;;;19.98;54.17;101649.03;5043492;27;98027;-77
2023/10/05 09:55:19;;;;;;;18.20;4.03;;;;;;;20.42;53.35;101646.31;5042801;27;97873;-78
2023/10/05 09:57:51;;;;;;;16.58;3.60;;;;;;;20.17;53.75;101655.00;5045042;27;98906;-78
2023/10/05 10:00:30;;;;;;;15.32;4.05;;;;;;;20.20;54.17;101650.31;5042356;27;98803;-77
2023/10/05 10:02:58;;;;;;;12.85;3.50;;;;;;;20.57;53.36;101651.59;5045318;27;96789;-78
2023/10/05 10:05:30;;;;;;;9.77;3.05;;;;;;;19.96;54.99;101659.84;5044354;27;96816;-77
2023/10/05 10:08:00;;;;;;;13.40;3.30;;;;;;;20.20;54.54;101655.69;5045025;27;99263;-77
2023/10/05 10:10:31;;;;;;;10.63;3.35;;;;;;;20.18;54.82;101654.91;5037955;27;97728;-77
2023/10/05 10:12:58;;;;;;;10.93;3.17;;;;;;;20.37;54.29;101653.78;5043942;27;97296;-78
2023/10/05 10:15:33;;;;;;;12.07;3.72;;;;;;;20.19;54.48;101648.59;5045679;27;97163;-79
2023/10/05 10:18:13;;;;;;;12.95;4.38;;;;;;;20.39;54.31;101644.72;5047739;27;98989;-78
2023/10/05 10:20:45;;;;;;;10.57;3.30;;;;;;;20.38;54.43;101658.22;5037284;27;97611;-79
2023/10/05 10:23:18;;;;;;;15.70;3.58;;;;;;;20.36;54.54;101655.63;5041941;27;96824;-80
2023/10/05 10:25:46;;;;;;;11.80;3.40;;;;;;;20.10;55.87;101653.63;5048515;27;97860;-78
2023/10/05 10:28:15;;;;;;;13.18;3.10;;;;;;;19.92;57.06;101661.00;5043991;27;98972;-77
2023/10/05 10:30:50;;;;;;;8.55;3.00;;;;;;;20.30;56.46;101670.25;5045768;27;98106;-77
2023/10/05 10:33:26;;;;;;;10.32;3.17;;;;;;;20.40;56.51;101669.72;5045254;27;96787;-77
2023/10/05 10:35:52;;;;;;;;;;;;;;;20.14;59.04;101672.16;5044695;27;96851;-78
2023/10/05 10:38:19;;;;;;;11.17;3.30;;;;;;;19.99;59.47;101674.91;5046982;27;98973;-79
2023/10/05 10:40:53;;;;;;;10.38;3.35;;;;;;;19.86;60.30;101677.44;5040416;27;99229;-77
2023/10/05 10:43:30;;;;;;;10.23;3.30;;;;;;;19.93;60.30;101684.19;5044401;27;97139;-78
2023/10/05 10:45:59;;;;;;;11.27;3.42;;;;;;;20.03;60.20;101679.97;5045963;27;96930;-78
2023/10/05 10:48:29;;;;;;;9.45;3.33;;;;;;;20.02;59.92;101664.00;5043935;27;98121;-78
2023/10/05 10:50:59;;;;;;;9.82;3.05;;;;;;;19.60;60.27;101683.47;5042527;27;99290;-78
2023/10/05 10:53:30;;;;;;;14.55;3.22;;;;;;;19.48;60.25;101677.03;5043736;27;96889;-78
2023/10/05 10:56:03;;;;;;;10.15;3.30;;;;;;;19.46;60.52;101671.75;5049043;27;96777;-79
2023/10/05 10:58:33;;;;;;;15.38;7.43;;;;;;;19.70;59.83;101685.53;5041879;27;98865;-78
2023/10/05 11:01:02;;;;;;;12.65;3.22;;;;;;;19.35;60.47;101679.50;5046119;27;97513;-79
2023/10/05 11:03:30;;;;;;;12.77;3.05;;;;;;;19.43;59.70;101684.41;5049002;27;97590;-82
2023/10/05 11:05:58;;;;;;;6.70;2.72;;;;;;;19.43;59.79;101682.59;5040171;27;97223;-79
2023/10/05 11:08:30;;;;;;;10.98;3.05;;;;;;;19.39;59.26;101677.50;5044815;27;97839;-78
2023/10/05 11:11:00;;;;;;;12.80;3.53;;;;;;;19.07;60.32;101679.34;5047946;27;99124;-77
2023/10/05 11:13:27;;;;;;;7.40;2.80;;;;;;;18.89;61.24;101683.91;5050316;27;96880;-78
2023/10/05 11:15:59;;;;;;;11.98;3.03;;;;;;;19.15;60.34;101679.78;5051920;27;96913;-78
2023/10/05 11:18:27;;;;;;;12.50;3.08;;;;;;;19.37;59.72;101684.75;5050894;27;99505;-79
2023/10/05 11:20:53;;;;;;;12.77;2.80;;;;;;;19.84;58.29;101693.63;5047435;27;97806;-78
2023/10/05 11:23:25;;;;;;;12.75;3.35;;;;;;;20.01;57.39;101689.94;5047390;27;97075;-79
2023/10/05 11:26:03;;;;;;;8.63;3.10;;;;;;;20.24;56.93;101684.03;5047273;27;96844;-77
2023/10/05 11:28:30;;;;;;;9.63;2.83;;;;;;;20.47;55.48;101687.19;5045812;27;99123;-77
2023/10/05 11:30:59;;;;;;;11.18;3.17;;;;;;;20.93;54.55;101688.72;5043567;27;98994;-77
2023/10/05 11:33:33;;;;;;;11.80;3.35;;;;;;;20.95;54.41;101692.13;5048797;27;98228;-78
2023/10/05 11:36:17;;;;;;;10.80;3.33;;;;;;;21.01;55.13;101694.44;5042145;27;97357;-77
2023/10/05 11:38:43;;;;;;;8.15;4.07;;;;;;;20.56;57.04;101705.38;5048914;27;97656;-77
2023/10/05 11:41:16;;;;;;;10.75;3.50;;;;;;;20.68;58.07;101705.47;5040584;27;100194;-77
2023/10/05 11:43:45;;;;;;;8.30;3.28;;;;;;;20.29;60.84;101724.88;5047361;27;97020;-80
2023/10/05 11:46:23;;;;;;;9.00;3.38;;;;;;;19.83;64.27;101721.38;5048214;27;97040;-79
2023/10/05 11:48:54;;;;;;;11.80;3.90;;;;;;;19.46;67.53;101722.66;5035789;27;99782;-78
2023/10/05 11:51:26;;;;;;;12.18;3.70;;;;;;;19.16;69.67;101708.31;5045966;27;101393;-79
2023/10/05 11:53:55;;;;;;;13.18;4.53;;;;;;;19.20;69.30;101708.97;5050088;27;96876;-78
2023/10/05 11:56:22;;;;;;;10.35;3.33;;;;;;;19.36;69.11;101705.34;5049003;27;97659;-78
2023/10/05 11:58:49;;;;;;;9.93;3.30;;;;;;;19.74;67.95;101700.50;5047393;27;98868;-78
2023/10/05 12:01:19;;;;;;;14.07;3.05;;;;;;;19.95;66.99;101706.41;5046999;27;98893;-78
2023/10/05 12:03:47;;;;;;;10.55;3.45;;;;;;;19.89;66.38;101709.44;5043438;27;96953;-78
2023/10/05 12:06:15;;;;;;;17.50;6.35;;;;;;;20.39;66.11;101705.56;5047605;27;97565;-79
2023/10/05 12:08:42;;;;;;;11.60;3.30;;;;;;;20.53;64.57;101700.22;5038938;27;99562;-76
2023/10/05 12:11:10;;;;;;;11.60;3.10;;;;;;;20.57;63.68;101699.94;5041849;27;99291;-76
2023/10/05 12:13:38;;;;;;;8.15;3.03;;;;;;;20.13;64.82;101696.41;5039208;27;97622;-74
2023/10/05 12:16:11;;;;;;;8.23;3.40;;;;;;;19.96;65.73;101701.88;5044758;27;96875;-77
2023/10/05 12:18:41;;;;;;;8.05;3.08;;;;;;;20.37;64.22;101696.75;5047700;27;101757;-75
2023/10/05 12:21:09;;;;;;;12.77;3.30;;;;;;;20.40;64.19;101693.88;5043975;27;99296;-76
2023/10/05 12:23:36;;;;;;;9.55;3.03;;;;;;;20.40;63.26;101699.25;5045129;27;97311;-77
2023/10/05 12:26:04;;;;;;;10.95;3.20;;;;;;;19.95;63.54;101698.38;5043884;27;97897;-76
2023/10/05 12:28:31;;;;;;;10.15;3.05;;;;;;;19.74;64.71;101699.63;5043045;27;99434;-78
2023/10/05 12:30:58;;;;;;;8.13;3.00;;;;;;;19.33;66.52;101705.53;5042702;27;99138;-78
2023/10/05 12:33:25;;;;;;;8.65;2.90;;;;;;;19.49;65.44;101703.72;5047015;27;96848;-77
2023/10/05 12:35:53;;;;;;;14.07;3.28;;;;;;;19.60;64.60;101707.59;5039237;27;97469;-77